Terminal Aerodrome Forecast
Issued by NWS

Home | Current Version | Previous Version | Text Only | Print | Product List | Glossary On
Versions: 1 2 3 4 5 6 7 8 9 10 11 12 13 14 15 16 17 18 19 20 21 22 23 24 25 26
456
FTUS41 KRNK 091740
TAFBCB
TAF
KBCB 091740Z 0918/1018 31012G22KT P6SM -SHSN OVC035
     FM100200 30008G18KT 6SM -SHSN OVC025
     FM101400 28012G22KT P6SM OVC035=

USA.gov is the U.S. government's official web portal to all federal, state and local government web resources and services.